sensor_id;sensor_type;location;lat;lon;timestamp;pressure;altitude;pressure_sealevel;temperature;humidity
13050;BME280;6591;51.446;5.404;2023-03-16T00:00:18;101493.09;;;10.99;45.34
13050;BME280;6591;51.446;5.404;2023-03-16T00:02:46;101481.50;;;11.02;45.49
13050;BME280;6591;51.446;5.404;2023-03-16T00:05:14;101490.16;;;11.07;45.38
13050;BME280;6591;51.446;5.404;2023-03-16T00:07:42;101479.41;;;11.10;45.36
13050;BME280;6591;51.446;5.404;2023-03-16T00:10:12;101476.72;;;11.12;45.46
13050;BME280;6591;51.446;5.404;2023-03-16T00:12:39;101473.88;;;11.16;45.31
13050;BME280;6591;51.446;5.404;2023-03-16T00:15:11;101473.81;;;11.18;45.34
13050;BME280;6591;51.446;5.404;2023-03-16T00:17:38;101472.81;;;11.20;45.36
13050;BME280;6591;51.446;5.404;2023-03-16T00:20:06;101472.78;;;11.22;45.04
13050;BME280;6591;51.446;5.404;2023-03-16T00:22:33;101468.19;;;11.25;45.51
13050;BME280;6591;51.446;5.404;2023-03-16T00:25:00;101466.38;;;11.27;45.23
13050;BME280;6591;51.446;5.404;2023-03-16T00:27:28;101466.31;;;11.29;45.77
13050;BME280;6591;51.446;5.404;2023-03-16T00:29:55;101463.53;;;11.32;45.17
13050;BME280;6591;51.446;5.404;2023-03-16T00:32:29;101455.56;;;11.32;45.13
13050;BME280;6591;51.446;5.404;2023-03-16T00:34:58;101458.97;;;11.35;45.41
13050;BME280;6591;51.446;5.404;2023-03-16T00:37:30;101450.00;;;11.38;45.27
13050;BME280;6591;51.446;5.404;2023-03-16T00:39:59;101451.75;;;11.39;45.67
13050;BME280;6591;51.446;5.404;2023-03-16T00:42:29;101455.19;;;11.41;45.51
13050;BME280;6591;51.446;5.404;2023-03-16T00:44:58;101456.00;;;11.43;45.62
13050;BME280;6591;51.446;5.404;2023-03-16T00:47:30;101449.78;;;11.44;45.60
13050;BME280;6591;51.446;5.404;2023-03-16T00:49:59;101441.75;;;11.45;45.08
13050;BME280;6591;51.446;5.404;2023-03-16T00:52:27;101439.00;;;11.47;45.62
13050;BME280;6591;51.446;5.404;2023-03-16T00:54:56;101430.09;;;11.48;45.23
13050;BME280;6591;51.446;5.404;2023-03-16T00:57:25;101432.72;;;11.50;45.15
13050;BME280;6591;51.446;5.404;2023-03-16T00:59:54;101436.25;;;11.50;45.21
13050;BME280;6591;51.446;5.404;2023-03-16T01:02:21;101434.44;;;11.51;45.28
13050;BME280;6591;51.446;5.404;2023-03-16T01:04:52;101423.72;;;11.52;45.28
13050;BME280;6591;51.446;5.404;2023-03-16T01:07:22;101419.28;;;11.53;45.47
13050;BME280;6591;51.446;5.404;2023-03-16T01:09:49;101417.47;;;11.53;45.68
13050;BME280;6591;51.446;5.404;2023-03-16T01:12:18;101411.25;;;11.54;45.55
13050;BME280;6591;51.446;5.404;2023-03-16T01:14:46;101411.19;;;11.56;45.53
13050;BME280;6591;51.446;5.404;2023-03-16T01:17:15;101411.19;;;11.56;45.36
13050;BME280;6591;51.446;5.404;2023-03-16T01:19:44;101405.78;;;11.57;45.65
13050;BME280;6591;51.446;5.404;2023-03-16T01:22:12;101396.91;;;11.58;45.45
13050;BME280;6591;51.446;5.404;2023-03-16T01:24:41;101380.94;;;11.58;45.73
13050;BME280;6591;51.446;5.404;2023-03-16T01:27:08;101385.19;;;11.62;45.66
13050;BME280;6591;51.446;5.404;2023-03-16T01:29:36;101379.75;;;11.65;45.53
13050;BME280;6591;51.446;5.404;2023-03-16T01:32:05;101380.50;;;11.69;45.97
13050;BME280;6591;51.446;5.404;2023-03-16T01:34:33;101373.34;;;11.71;46.00
13050;BME280;6591;51.446;5.404;2023-03-16T01:37:01;101378.53;;;11.74;45.73
13050;BME280;6591;51.446;5.404;2023-03-16T01:39:49;101361.59;;;11.76;46.13
13050;BME280;6591;51.446;5.404;2023-03-16T01:42:16;101363.34;;;11.77;45.98
13050;BME280;6591;51.446;5.404;2023-03-16T01:48:23;101365.19;;;11.75;45.41
13050;BME280;6591;51.446;5.404;2023-03-16T01:50:53;101365.03;;;11.78;45.74
13050;BME280;6591;51.446;5.404;2023-03-16T01:53:23;101370.31;;;11.80;45.42
13050;BME280;6591;51.446;5.404;2023-03-16T01:55:52;101371.13;;;11.82;45.94
13050;BME280;6591;51.446;5.404;2023-03-16T01:58:21;101353.28;;;11.84;45.64
13050;BME280;6591;51.446;5.404;2023-03-16T02:00:48;101356.75;;;11.86;45.90
13050;BME280;6591;51.446;5.404;2023-03-16T02:03:21;101358.34;;;11.90;45.76
13050;BME280;6591;51.446;5.404;2023-03-16T02:06:01;101360.91;;;11.93;45.77
13050;BME280;6591;51.446;5.404;2023-03-16T02:08:35;101353.63;;;11.97;46.13
13050;BME280;6591;51.446;5.404;2023-03-16T02:11:06;101350.06;;;11.98;45.94
13050;BME280;6591;51.446;5.404;2023-03-16T02:13:45;101350.78;;;12.01;45.89
13050;BME280;6591;51.446;5.404;2023-03-16T02:16:15;101348.94;;;12.03;45.78
13050;BME280;6591;51.446;5.404;2023-03-16T02:18:49;101343.50;;;12.05;46.10
13050;BME280;6591;51.446;5.404;2023-03-16T02:21:32;101346.19;;;12.05;46.35
13050;BME280;6591;51.446;5.404;2023-03-16T02:24:06;101342.47;;;12.09;45.57
13050;BME280;6591;51.446;5.404;2023-03-16T02:26:56;101338.13;;;12.06;46.21
13050;BME280;6591;51.446;5.404;2023-03-16T02:30:07;101344.31;;;12.07;45.77
13050;BME280;6591;51.446;5.404;2023-03-16T02:32:44;101338.13;;;12.06;45.87
13050;BME280;6591;51.446;5.404;2023-03-16T02:35:14;101335.41;;;12.08;46.11
13050;BME280;6591;51.446;5.404;2023-03-16T02:37:41;101332.75;;;12.08;45.80
13050;BME280;6591;51.446;5.404;2023-03-16T02:40:31;101338.19;;;12.05;45.84
13050;BME280;6591;51.446;5.404;2023-03-16T02:43:08;101331.03;;;12.07;46.24
13050;BME280;6591;51.446;5.404;2023-03-16T02:45:56;101328.41;;;12.05;46.44
13050;BME280;6591;51.446;5.404;2023-03-16T02:48:34;101321.28;;;12.06;46.48
13050;BME280;6591;51.446;5.404;2023-03-16T02:51:04;101328.28;;;12.08;46.11
13050;BME280;6591;51.446;5.404;2023-03-16T02:53:31;101329.22;;;12.07;46.12
13050;BME280;6591;51.446;5.404;2023-03-16T02:56:00;101321.25;;;12.07;46.00
13050;BME280;6591;51.446;5.404;2023-03-16T02:58:33;101319.56;;;12.05;46.06
13050;BME280;6591;51.446;5.404;2023-03-16T03:01:04;101316.03;;;12.04;46.58
13050;BME280;6591;51.446;5.404;2023-03-16T03:03:33;101308.13;;;12.03;46.35
13050;BME280;6591;51.446;5.404;2023-03-16T03:06:00;101313.47;;;12.03;46.20
13050;BME280;6591;51.446;5.404;2023-03-16T03:08:33;101311.72;;;12.02;46.13
13050;BME280;6591;51.446;5.404;2023-03-16T03:11:01;101312.66;;;12.01;46.66
13050;BME280;6591;51.446;5.404;2023-03-16T03:13:28;101305.53;;;12.01;46.61
13050;BME280;6591;51.446;5.404;2023-03-16T03:15:55;101315.25;;;12.02;46.46
13050;BME280;6591;51.446;5.404;2023-03-16T03:18:24;101304.59;;;12.02;46.04
13050;BME280;6591;51.446;5.404;2023-03-16T03:20:52;101320.56;;;12.02;46.63
13050;BME280;6591;51.446;5.404;2023-03-16T03:23:19;101308.19;;;12.01;46.67
13050;BME280;6591;51.446;5.404;2023-03-16T03:25:47;101310.91;;;12.00;46.33
13050;BME280;6591;51.446;5.404;2023-03-16T03:28:15;101306.50;;;11.99;46.11
13050;BME280;6591;51.446;5.404;2023-03-16T03:30:42;101306.59;;;11.97;46.21
13050;BME280;6591;51.446;5.404;2023-03-16T03:33:09;101308.47;;;11.95;46.50
13050;BME280;6591;51.446;5.404;2023-03-16T03:35:36;101302.25;;;11.95;46.23
13050;BME280;6591;51.446;5.404;2023-03-16T03:38:04;101306.81;;;11.93;46.17
13050;BME280;6591;51.446;5.404;2023-03-16T03:40:31;101309.47;;;11.93;46.52
13050;BME280;6591;51.446;5.404;2023-03-16T03:43:01;101302.41;;;11.92;46.69
13050;BME280;6591;51.446;5.404;2023-03-16T03:45:30;101298.94;;;11.89;46.42
13050;BME280;6591;51.446;5.404;2023-03-16T03:47:58;101298.06;;;11.89;46.40
13050;BME280;6591;51.446;5.404;2023-03-16T03:50:25;101300.72;;;11.89;46.49
13050;BME280;6591;51.446;5.404;2023-03-16T03:53:17;101304.31;;;11.88;46.72
13050;BME280;6591;51.446;5.404;2023-03-16T03:56:15;101300.81;;;11.87;46.99
13050;BME280;6591;51.446;5.404;2023-03-16T03:58:42;101299.88;;;11.88;46.70
13050;BME280;6591;51.446;5.404;2023-03-16T04:01:12;101290.09;;;11.89;47.11
13050;BME280;6591;51.446;5.404;2023-03-16T04:03:40;101283.78;;;11.92;47.16
13050;BME280;6591;51.446;5.404;2023-03-16T04:06:10;101276.66;;;11.92;46.52
13050;BME280;6591;51.446;5.404;2023-03-16T04:08:37;101273.88;;;11.95;46.85
13050;BME280;6591;51.446;5.404;2023-03-16T04:11:08;101275.66;;;11.95;46.88
13050;BME280;6591;51.446;5.404;2023-03-16T04:13:35;101274.66;;;11.97;47.06
13050;BME280;6591;51.446;5.404;2023-03-16T04:16:03;101271.16;;;11.97;46.63
13050;BME280;6591;51.446;5.404;2023-03-16T04:18:40;101272.06;;;11.96;47.11
13050;BME280;6591;51.446;5.404;2023-03-16T04:21:15;101269.41;;;11.96;46.71
13050;BME280;6591;51.446;5.404;2023-03-16T04:23:46;101269.41;;;11.96;46.80
13050;BME280;6591;51.446;5.404;2023-03-16T04:26:13;101272.94;;;11.96;46.97
13050;BME280;6591;51.446;5.404;2023-03-16T04:28:43;101261.38;;;11.97;46.91
13050;BME280;6591;51.446;5.404;2023-03-16T04:31:13;101265.75;;;11.98;47.00
13050;BME280;6591;51.446;5.404;2023-03-16T04:33:43;101265.66;;;12.00;46.84
13050;BME280;6591;51.446;5.404;2023-03-16T04:36:11;101266.47;;;12.02;47.20
13050;BME280;6591;51.446;5.404;2023-03-16T04:38:39;101263.75;;;12.03;47.13
13050;BME280;6591;51.446;5.404;2023-03-16T04:41:06;101259.22;;;12.05;47.06
13050;BME280;6591;51.446;5.404;2023-03-16T04:43:38;101264.47;;;12.07;47.38
13050;BME280;6591;51.446;5.404;2023-03-16T04:46:14;101264.41;;;12.08;47.30
13050;BME280;6591;51.446;5.404;2023-03-16T04:48:41;101261.59;;;12.11;47.47
13050;BME280;6591;51.446;5.404;2023-03-16T04:51:09;101257.09;;;12.13;47.19
13050;BME280;6591;51.446;5.404;2023-03-16T04:53:40;101258.72;;;12.16;47.13
13050;BME280;6591;51.446;5.404;2023-03-16T04:56:33;101260.47;;;12.17;47.35
13050;BME280;6591;51.446;5.404;2023-03-16T04:59:05;101253.28;;;12.19;46.64
13050;BME280;6591;51.446;5.404;2023-03-16T05:01:43;101255.00;;;12.20;46.70
13050;BME280;6591;51.446;5.404;2023-03-16T05:04:11;101253.13;;;12.22;46.88
13050;BME280;6591;51.446;5.404;2023-03-16T05:06:47;101254.94;;;12.21;47.21
13050;BME280;6591;51.446;5.404;2023-03-16T05:09:17;101250.47;;;12.22;46.99
13050;BME280;6591;51.446;5.404;2023-03-16T05:11:44;101237.97;;;12.24;46.84
13050;BME280;6591;51.446;5.404;2023-03-16T05:14:11;101240.69;;;12.22;47.01
13050;BME280;6591;51.446;5.404;2023-03-16T05:16:58;101238.91;;;12.23;46.96
13050;BME280;6591;51.446;5.404;2023-03-16T05:19:25;101235.38;;;12.22;46.86
13050;BME280;6591;51.446;5.404;2023-03-16T05:21:52;101233.56;;;12.23;47.22
13050;BME280;6591;51.446;5.404;2023-03-16T05:24:19;101234.34;;;12.25;47.26
13050;BME280;6591;51.446;5.404;2023-03-16T05:26:46;101229.03;;;12.25;46.91
13050;BME280;6591;51.446;5.404;2023-03-16T05:29:15;101228.09;;;12.26;47.17
13050;BME280;6591;51.446;5.404;2023-03-16T05:31:44;101228.03;;;12.27;47.24
13050;BME280;6591;51.446;5.404;2023-03-16T05:34:16;101225.31;;;12.29;47.30
13050;BME280;6591;51.446;5.404;2023-03-16T05:36:43;101226.09;;;12.31;47.16
13050;BME280;6591;51.446;5.404;2023-03-16T05:39:14;101227.00;;;12.30;47.28
13050;BME280;6591;51.446;5.404;2023-03-16T05:41:45;101220.75;;;12.31;47.42
13050;BME280;6591;51.446;5.404;2023-03-16T05:44:21;101228.69;;;12.32;47.25
13050;BME280;6591;51.446;5.404;2023-03-16T05:47:03;101219.88;;;12.30;47.66
13050;BME280;6591;51.446;5.404;2023-03-16T05:49:34;101211.84;;;12.32;47.40
13050;BME280;6591;51.446;5.404;2023-03-16T05:52:06;101207.31;;;12.34;47.31
13050;BME280;6591;51.446;5.404;2023-03-16T05:54:35;101203.63;;;12.37;47.49
13050;BME280;6591;51.446;5.404;2023-03-16T05:57:02;101203.63;;;12.37;47.71
13050;BME280;6591;51.446;5.404;2023-03-16T05:59:31;101211.56;;;12.38;47.48
13050;BME280;6591;51.446;5.404;2023-03-16T06:01:58;101215.88;;;12.41;47.31
13050;BME280;6591;51.446;5.404;2023-03-16T06:04:25;101210.47;;;12.42;47.18
13050;BME280;6591;51.446;5.404;2023-03-16T06:06:53;101213.06;;;12.44;47.49
13050;BME280;6591;51.446;5.404;2023-03-16T06:09:24;101211.19;;;12.46;47.46
13050;BME280;6591;51.446;5.404;2023-03-16T06:11:51;101219.03;;;12.49;47.17
13050;BME280;6591;51.446;5.404;2023-03-16T06:14:19;101212.69;;;12.51;47.28
13050;BME280;6591;51.446;5.404;2023-03-16T06:16:50;101206.44;;;12.52;47.76
13050;BME280;6591;51.446;5.404;2023-03-16T06:19:17;101212.56;;;12.54;47.32
13050;BME280;6591;51.446;5.404;2023-03-16T06:21:50;101216.00;;;12.56;47.63
13050;BME280;6591;51.446;5.404;2023-03-16T06:24:17;101209.69;;;12.59;47.79
13050;BME280;6591;51.446;5.404;2023-03-16T06:26:44;101205.06;;;12.62;47.57
13050;BME280;6591;51.446;5.404;2023-03-16T06:29:12;101201.41;;;12.65;47.41
13050;BME280;6591;51.446;5.404;2023-03-16T06:31:40;101205.69;;;12.67;47.40
13050;BME280;6591;51.446;5.404;2023-03-16T06:34:07;101196.66;;;12.71;47.53
13050;BME280;6591;51.446;5.404;2023-03-16T06:36:35;101197.41;;;12.73;47.13
13050;BME280;6591;51.446;5.404;2023-03-16T06:39:08;101195.44;;;12.77;47.26
13050;BME280;6591;51.446;5.404;2023-03-16T06:41:39;101187.41;;;12.79;47.23
13050;BME280;6591;51.446;5.404;2023-03-16T06:44:10;101186.41;;;12.81;47.76
13050;BME280;6591;51.446;5.404;2023-03-16T06:46:44;101188.84;;;12.86;47.88
13050;BME280;6591;51.446;5.404;2023-03-16T06:49:11;101188.66;;;12.89;47.83
13050;BME280;6591;51.446;5.404;2023-03-16T06:51:39;101191.91;;;12.95;48.07
13050;BME280;6591;51.446;5.404;2023-03-16T06:54:06;101199.66;;;13.00;47.87
13050;BME280;6591;51.446;5.404;2023-03-16T06:56:37;101197.56;;;13.06;47.99
13050;BME280;6591;51.446;5.404;2023-03-16T06:59:05;101198.16;;;13.13;47.97
13050;BME280;6591;51.446;5.404;2023-03-16T07:01:32;101190.06;;;13.14;47.67
13050;BME280;6591;51.446;5.404;2023-03-16T07:04:01;101188.81;;;13.22;47.74
13050;BME280;6591;51.446;5.404;2023-03-16T07:06:30;101197.47;;;13.27;47.83
13050;BME280;6591;51.446;5.404;2023-03-16T07:08:58;101203.47;;;13.30;47.79
13050;BME280;6591;51.446;5.404;2023-03-16T07:11:29;101196.22;;;13.34;47.74
13050;BME280;6591;51.446;5.404;2023-03-16T07:13:57;101191.50;;;13.39;47.24
13050;BME280;6591;51.446;5.404;2023-03-16T07:16:26;101186.88;;;13.42;47.64
13050;BME280;6591;51.446;5.404;2023-03-16T07:18:56;101184.81;;;13.47;47.80
13050;BME280;6591;51.446;5.404;2023-03-16T07:21:24;101180.19;;;13.51;47.37
13050;BME280;6591;51.446;5.404;2023-03-16T07:23:51;101171.09;;;13.55;47.70
13050;BME280;6591;51.446;5.404;2023-03-16T07:26:23;101175.25;;;13.61;47.70
13050;BME280;6591;51.446;5.404;2023-03-16T07:28:57;101179.38;;;13.66;47.53
13050;BME280;6591;51.446;5.404;2023-03-16T07:31:25;101173.81;;;13.71;47.38
13050;BME280;6591;51.446;5.404;2023-03-16T07:33:54;101173.47;;;13.77;47.62
13050;BME280;6591;51.446;5.404;2023-03-16T07:36:30;101181.16;;;13.83;47.44
13050;BME280;6591;51.446;5.404;2023-03-16T07:39:00;101178.16;;;13.89;47.56
13050;BME280;6591;51.446;5.404;2023-03-16T07:41:27;101179.63;;;13.94;47.25
13050;BME280;6591;51.446;5.404;2023-03-16T07:44:12;101175.78;;;14.00;47.14
13050;BME280;6591;51.446;5.404;2023-03-16T07:46:40;101178.13;;;14.06;47.16
13050;BME280;6591;51.446;5.404;2023-03-16T07:49:09;101172.59;;;14.09;47.62
13050;BME280;6591;51.446;5.404;2023-03-16T07:51:38;101179.41;;;14.15;47.28
13050;BME280;6591;51.446;5.404;2023-03-16T07:54:07;101176.34;;;14.22;47.01
13050;BME280;6591;51.446;5.404;2023-03-16T07:56:35;101176.00;;;14.28;47.10
13050;BME280;6591;51.446;5.404;2023-03-16T07:59:24;101180.03;;;14.35;47.37
13050;BME280;6591;51.446;5.404;2023-03-16T08:01:51;101171.53;;;14.45;46.82
13050;BME280;6591;51.446;5.404;2023-03-16T08:04:19;101177.53;;;14.50;47.37
13050;BME280;6591;51.446;5.404;2023-03-16T08:06:46;101174.41;;;14.57;47.09
13050;BME280;6591;51.446;5.404;2023-03-16T08:09:13;101174.91;;;14.64;47.09
13050;BME280;6591;51.446;5.404;2023-03-16T08:11:42;101174.47;;;14.71;46.88
13050;BME280;6591;51.446;5.404;2023-03-16T08:14:09;101178.34;;;14.81;46.79
13050;BME280;6591;51.446;5.404;2023-03-16T08:16:55;101175.03;;;14.92;46.72
13050;BME280;6591;51.446;5.404;2023-03-16T08:19:24;101181.56;;;15.02;46.42
13050;BME280;6591;51.446;5.404;2023-03-16T08:21:54;101184.50;;;15.13;46.92
13050;BME280;6591;51.446;5.404;2023-03-16T08:24:32;101185.50;;;15.26;46.56
13050;BME280;6591;51.446;5.404;2023-03-16T08:27:05;101186.41;;;15.41;46.68
13050;BME280;6591;51.446;5.404;2023-03-16T08:29:33;101182.91;;;15.55;46.53
13050;BME280;6591;51.446;5.404;2023-03-16T08:32:02;101182.97;;;15.69;46.54
13050;BME280;6591;51.446;5.404;2023-03-16T08:34:37;101173.13;;;15.84;46.43
13050;BME280;6591;51.446;5.404;2023-03-16T08:37:07;101183.16;;;15.94;46.06
13050;BME280;6591;51.446;5.404;2023-03-16T08:39:33;101184.22;;;16.06;46.13
13050;BME280;6591;51.446;5.404;2023-03-16T08:42:05;101175.59;;;16.15;45.93
13050;BME280;6591;51.446;5.404;2023-03-16T08:44:40;101168.03;;;16.22;45.45
13050;BME280;6591;51.446;5.404;2023-03-16T08:47:07;101168.59;;;16.27;45.50
13050;BME280;6591;51.446;5.404;2023-03-16T08:49:35;101167.44;;;16.31;45.23
13050;BME280;6591;51.446;5.404;2023-03-16T08:52:10;101167.16;;;16.35;44.95
13050;BME280;6591;51.446;5.404;2023-03-16T08:54:39;101170.47;;;16.39;45.32
13050;BME280;6591;51.446;5.404;2023-03-16T08:57:18;101164.00;;;16.43;45.01
13050;BME280;6591;51.446;5.404;2023-03-16T08:59:45;101162.81;;;16.47;44.85
13050;BME280;6591;51.446;5.404;2023-03-16T09:02:13;101147.47;;;16.49;44.94
13050;BME280;6591;51.446;5.404;2023-03-16T09:04:40;101162.13;;;16.58;44.82
13050;BME280;6591;51.446;5.404;2023-03-16T09:07:08;101152.66;;;16.66;44.76
13050;BME280;6591;51.446;5.404;2023-03-16T09:09:36;101144.97;;;16.74;44.58
13050;BME280;6591;51.446;5.404;2023-03-16T09:12:04;101147.91;;;16.84;44.54
13050;BME280;6591;51.446;5.404;2023-03-16T09:14:32;101149.88;;;16.94;44.70
13050;BME280;6591;51.446;5.404;2023-03-16T09:16:59;101142.16;;;17.03;44.43
13050;BME280;6591;51.446;5.404;2023-03-16T09:19:26;101141.53;;;17.12;43.64
13050;BME280;6591;51.446;5.404;2023-03-16T09:22:00;101149.72;;;17.23;44.45
13050;BME280;6591;51.446;5.404;2023-03-16T09:24:27;101145.44;;;17.33;44.17
13050;BME280;6591;51.446;5.404;2023-03-16T09:26:58;101145.47;;;17.46;44.04
13050;BME280;6591;51.446;5.404;2023-03-16T09:29:25;101141.50;;;17.64;44.40
13050;BME280;6591;51.446;5.404;2023-03-16T09:31:53;101138.19;;;17.86;43.97
13050;BME280;6591;51.446;5.404;2023-03-16T09:34:21;101131.59;;;18.02;43.65
13050;BME280;6591;51.446;5.404;2023-03-16T09:36:53;101136.63;;;18.19;43.36
13050;BME280;6591;51.446;5.404;2023-03-16T09:39:21;101131.34;;;18.31;43.00
13050;BME280;6591;51.446;5.404;2023-03-16T09:45:12;101133.25;;;18.41;42.54
13050;BME280;6591;51.446;5.404;2023-03-16T09:47:41;101136.78;;;18.54;42.41
13050;BME280;6591;51.446;5.404;2023-03-16T09:50:33;101136.31;;;18.60;42.50
13050;BME280;6591;51.446;5.404;2023-03-16T09:53:30;101131.41;;;18.78;42.67
13050;BME280;6591;51.446;5.404;2023-03-16T09:56:05;101132.34;;;19.01;42.41
13050;BME280;6591;51.446;5.404;2023-03-16T09:58:34;101124.09;;;19.26;42.35
13050;BME280;6591;51.446;5.404;2023-03-16T10:01:39;101115.91;;;19.52;41.96
13050;BME280;6591;51.446;5.404;2023-03-16T10:04:44;101111.16;;;19.77;41.39
13050;BME280;6591;51.446;5.404;2023-03-16T10:16:46;101090.22;;;20.57;40.54
13050;BME280;6591;51.446;5.404;2023-03-16T10:19:43;101089.78;;;20.73;40.00
13050;BME280;6591;51.446;5.404;2023-03-16T10:22:19;101095.88;;;20.86;39.64
13050;BME280;6591;51.446;5.404;2023-03-16T10:27:59;101092.00;;;21.00;39.54
13050;BME280;6591;51.446;5.404;2023-03-16T10:30:35;101094.59;;;21.01;39.14
13050;BME280;6591;51.446;5.404;2023-03-16T10:33:26;101092.16;;;20.98;38.88
13050;BME280;6591;51.446;5.404;2023-03-16T10:39:14;101090.63;;;21.05;38.97
13050;BME280;6591;51.446;5.404;2023-03-16T10:41:45;101092.94;;;21.10;38.64
13050;BME280;6591;51.446;5.404;2023-03-16T10:44:23;101084.72;;;21.11;38.11
13050;BME280;6591;51.446;5.404;2023-03-16T10:47:00;101072.69;;;21.16;38.29
13050;BME280;6591;51.446;5.404;2023-03-16T10:49:43;101065.66;;;21.24;38.08
13050;BME280;6591;51.446;5.404;2023-03-16T10:55:08;101071.09;;;21.54;37.63
13050;BME280;6591;51.446;5.404;2023-03-16T10:57:43;101068.00;;;21.69;37.43
13050;BME280;6591;51.446;5.404;2023-03-16T11:00:20;101055.84;;;21.84;38.12
13050;BME280;6591;51.446;5.404;2023-03-16T11:02:51;101052.22;;;22.04;37.58
13050;BME280;6591;51.446;5.404;2023-03-16T11:05:33;101060.53;;;22.22;37.50
13050;BME280;6591;51.446;5.404;2023-03-16T11:08:20;101051.75;;;22.39;36.91
13050;BME280;6591;51.446;5.404;2023-03-16T11:10:59;101056.47;;;22.56;36.88
13050;BME280;6591;51.446;5.404;2023-03-16T11:13:34;101047.06;;;22.70;36.79
13050;BME280;6591;51.446;5.404;2023-03-16T11:19:13;101037.38;;;23.06;36.66
13050;BME280;6591;51.446;5.404;2023-03-16T11:27:36;101033.72;;;23.53;35.00
13050;BME280;6591;51.446;5.404;2023-03-16T11:30:41;101027.59;;;23.51;35.06
13050;BME280;6591;51.446;5.404;2023-03-16T11:33:13;101022.75;;;23.55;35.42
13050;BME280;6591;51.446;5.404;2023-03-16T11:44:43;101008.19;;;23.46;34.46
13050;BME280;6591;51.446;5.404;2023-03-16T11:47:59;101000.34;;;23.43;34.91
13050;BME280;6591;51.446;5.404;2023-03-16T11:51:00;100999.63;;;23.41;34.80
13050;BME280;6591;51.446;5.404;2023-03-16T11:53:37;100994.91;;;23.43;34.37
13050;BME280;6591;51.446;5.404;2023-03-16T12:06:02;100972.25;;;23.44;34.29
13050;BME280;6591;51.446;5.404;2023-03-16T12:14:47;100965.69;;;23.47;33.99
13050;BME280;6591;51.446;5.404;2023-03-16T12:17:24;100973.06;;;23.54;34.24
13050;BME280;6591;51.446;5.404;2023-03-16T12:20:01;100972.75;;;23.57;33.71
13050;BME280;6591;51.446;5.404;2023-03-16T12:22:40;100967.19;;;23.59;33.43
13050;BME280;6591;51.446;5.404;2023-03-16T12:25:25;100966.34;;;23.58;33.55
13050;BME280;6591;51.446;5.404;2023-03-16T12:27:59;100961.31;;;23.63;33.55
13050;BME280;6591;51.446;5.404;2023-03-16T12:31:12;100962.63;;;23.59;33.38
13050;BME280;6591;51.446;5.404;2023-03-16T12:45:29;100917.41;;;23.78;33.03
13050;BME280;6591;51.446;5.404;2023-03-16T12:48:29;100913.38;;;23.82;32.51
13050;BME280;6591;51.446;5.404;2023-03-16T12:51:01;100903.94;;;23.86;32.37
13050;BME280;6591;51.446;5.404;2023-03-16T12:56:42;100889.22;;;23.88;32.24
13050;BME280;6591;51.446;5.404;2023-03-16T12:59:17;100897.44;;;23.96;32.35
13050;BME280;6591;51.446;5.404;2023-03-16T13:01:56;100886.97;;;24.01;31.81
13050;BME280;6591;51.446;5.404;2023-03-16T13:04:39;100888.22;;;24.07;32.13
13050;BME280;6591;51.446;5.404;2023-03-16T13:07:24;100887.44;;;24.15;31.89
13050;BME280;6591;51.446;5.404;2023-03-16T13:10:06;100890.72;;;24.18;31.95
13050;BME280;6591;51.446;5.404;2023-03-16T13:12:39;100878.22;;;24.25;31.71
13050;BME280;6591;51.446;5.404;2023-03-16T13:17:45;100868.75;;;24.29;31.48
13050;BME280;6591;51.446;5.404;2023-03-16T13:28:39;100866.03;;;24.29;31.08
13050;BME280;6591;51.446;5.404;2023-03-16T13:31:40;100849.84;;;24.20;31.19
13050;BME280;6591;51.446;5.404;2023-03-16T13:36:54;100844.50;;;24.28;31.20
13050;BME280;6591;51.446;5.404;2023-03-16T13:39:26;100838.59;;;24.32;31.16
13050;BME280;6591;51.446;5.404;2023-03-16T13:42:13;100838.59;;;24.32;30.95
13050;BME280;6591;51.446;5.404;2023-03-16T13:44:43;100838.63;;;24.40;31.66
13050;BME280;6591;51.446;5.404;2023-03-16T13:47:17;100829.16;;;24.44;31.19
13050;BME280;6591;51.446;5.404;2023-03-16T13:49:48;100825.50;;;24.54;31.15
13050;BME280;6591;51.446;5.404;2023-03-16T13:52:28;100811.44;;;24.58;30.84
13050;BME280;6591;51.446;5.404;2023-03-16T13:54:58;100806.75;;;24.68;30.84
13050;BME280;6591;51.446;5.404;2023-03-16T13:57:35;100804.25;;;24.75;31.05
13050;BME280;6591;51.446;5.404;2023-03-16T14:02:43;100785.34;;;24.91;31.11
13050;BME280;6591;51.446;5.404;2023-03-16T14:05:24;100797.25;;;24.98;31.18
13050;BME280;6591;51.446;5.404;2023-03-16T14:07:55;100783.34;;;25.09;30.85
13050;BME280;6591;51.446;5.404;2023-03-16T14:10:34;100783.56;;;25.16;30.93
13050;BME280;6591;51.446;5.404;2023-03-16T14:13:31;100787.63;;;25.20;30.63
13050;BME280;6591;51.446;5.404;2023-03-16T14:16:12;100788.03;;;25.33;30.55
13050;BME280;6591;51.446;5.404;2023-03-16T14:19:07;100774.44;;;25.41;30.52
13050;BME280;6591;51.446;5.404;2023-03-16T14:21:44;100775.63;;;25.55;30.70
13050;BME280;6591;51.446;5.404;2023-03-16T14:24:31;100766.00;;;25.60;30.29
13050;BME280;6591;51.446;5.404;2023-03-16T14:27:41;100758.69;;;25.61;30.09
13050;BME280;6591;51.446;5.404;2023-03-16T14:30:24;100749.84;;;25.67;30.50
13050;BME280;6591;51.446;5.404;2023-03-16T14:33:05;100745.59;;;25.72;30.33
13050;BME280;6591;51.446;5.404;2023-03-16T14:35:43;100747.47;;;25.72;29.58
13050;BME280;6591;51.446;5.404;2023-03-16T14:38:33;100751.41;;;25.69;29.40
13050;BME280;6591;51.446;5.404;2023-03-16T14:41:25;100751.56;;;25.68;29.71
13050;BME280;6591;51.446;5.404;2023-03-16T14:44:02;100751.56;;;25.68;29.47
13050;BME280;6591;51.446;5.404;2023-03-16T14:46:38;100738.13;;;25.66;29.68
13050;BME280;6591;51.446;5.404;2023-03-16T14:49:26;100744.75;;;25.64;29.09
13050;BME280;6591;51.446;5.404;2023-03-16T14:52:05;100737.25;;;25.66;29.53
13050;BME280;6591;51.446;5.404;2023-03-16T14:54:33;100738.63;;;25.70;29.92
13050;BME280;6591;51.446;5.404;2023-03-16T14:57:03;100742.19;;;25.70;29.20
13050;BME280;6591;51.446;5.404;2023-03-16T14:59:32;100736.59;;;25.72;29.07
13050;BME280;6591;51.446;5.404;2023-03-16T15:02:01;100732.34;;;25.69;29.17